CheckWX is a tool to help pilots better visualize weather data.  It is not intended as a substitute for an official pre-flight weather briefing.

12:40:04 UTC

KMBS METAR
Mbs International Airport
Saginaw, Michigan, USA
Current

47 mins ago

KMBS 161153Z 25010KT 10SM FEW019 BKN027 07/03 A2956 RMK AO2 SLP013 60000 70033 T00720033 10106 20067 56012 $
Observed
Oct-16 @ 11:53 UTC
Wind
  • 250° at 10 KTS
Visibility
10 SM
Flight Rules
MVFR
Cloud Levels
  • Few at 1,900' AGL
  • Broken at 2,700' AGL
Temperature
C / 45°F
Dewpoint
C / 37°F
Humidity
76%
Altimeter
29.56" Hg
Pressure
1001.02 hPa
24 Hour Rain
0.33"
Previous

50 mins ago

KMBS 161150Z 25010KT 10SM FEW019 BKN027 BKN034 07/04 A2957 RMK AO2 $
Observed
Oct-16 @ 11:50 UTC
Wind
  • 250° at 10 KTS
Visibility
10 SM
Flight Rules
MVFR
Cloud Levels
  • Few at 1,900' AGL
  • Broken at 2,700' AGL
  • Broken at 3,400' AGL
Temperature
C / 45°F
Dewpoint
C / 39°F
Humidity
81%
Altimeter
29.57" Hg
Pressure
1001.32 hPa
Previous

2 hours ago

KMBS 161053Z 25016G20KT 10SM OVC036 08/04 A2958 RMK AO2 SLP020 T00780044 $
Observed
Oct-16 @ 10:53 UTC
Wind
  • 250° at 16 KTS
  • Gusting to 20 KTS
Visibility
10 SM
Flight Rules
VFR
Cloud Levels
  • Overcast at 3,600' AGL
Temperature
C / 46°F
Dewpoint
C / 39°F
Humidity
76%
Altimeter
29.58" Hg
Pressure
1001.72 hPa